createdAt,value
2019-05-18T13:49:06.853Z,98419.39
2019-05-18T13:51:38.164Z,98417.17
2019-05-18T13:54:09.661Z,98405.70
2019-05-18T13:56:40.932Z,98406.91
2019-05-18T13:59:12.340Z,98403.36
2019-05-18T14:01:43.662Z,98401.17
2019-05-18T14:04:15.004Z,98397.73
2019-05-18T14:06:46.332Z,98390.85
2019-05-18T14:09:17.597Z,98391.67
2019-05-18T14:11:48.902Z,98394.20
2019-05-18T14:14:20.306Z,98392.80
2019-05-18T14:16:51.617Z,98387.41
2019-05-18T14:19:23.119Z,98385.67
2019-05-18T14:21:54.498Z,98380.11
2019-05-18T14:24:25.862Z,98376.43
2019-05-18T14:26:57.141Z,98378.52
2019-05-18T14:29:28.543Z,98373.62
2019-05-18T14:31:59.853Z,98364.95
2019-05-18T14:34:31.303Z,98365.53
2019-05-18T14:37:02.679Z,98370.19
2019-05-18T14:39:34.060Z,98370.59
2019-05-18T14:42:05.615Z,98374.05
2019-05-18T14:44:36.977Z,98370.75
2019-05-18T14:47:08.283Z,98366.59
2019-05-18T14:49:39.734Z,98365.62
2019-05-18T14:52:12.089Z,98369.86
2019-05-18T14:54:45.847Z,98373.52
2019-05-18T14:57:20.161Z,98370.38
2019-05-18T14:59:52.038Z,98373.38
2019-05-18T15:02:23.360Z,98379.02
2019-05-18T15:04:56.931Z,98378.83
2019-05-18T15:07:27.953Z,98387.38
2019-05-18T15:09:59.429Z,98387.05
2019-05-18T15:12:30.857Z,98385.53
2019-05-18T15:15:02.353Z,98380.44
2019-05-18T15:17:34.127Z,98376.58
2019-05-18T15:20:06.058Z,98376.95
2019-05-18T15:22:37.886Z,98386.83
2019-05-18T15:25:09.534Z,98383.69
2019-05-18T15:27:40.952Z,98364.11
2019-05-18T15:30:12.309Z,98377.30
2019-05-18T15:32:43.626Z,98374.71
2019-05-18T15:35:15.051Z,98365.35
2019-05-18T15:37:46.436Z,98356.23
2019-05-18T15:40:17.769Z,98351.49
2019-05-18T15:42:49.066Z,98354.53
2019-05-18T15:45:20.836Z,98344.70
2019-05-18T15:47:52.079Z,98344.80
2019-05-18T15:50:23.363Z,98343.38
2019-05-18T15:52:54.681Z,98346.13
2019-05-18T15:55:25.967Z,98358.13
2019-05-18T15:57:57.354Z,98355.31
2019-05-18T16:00:28.842Z,98349.59
2019-05-18T16:03:00.117Z,98351.64
2019-05-18T16:05:31.491Z,98357.69
2019-05-18T16:08:02.824Z,98367.36
2019-05-18T16:10:34.135Z,98365.46
2019-05-18T16:13:05.628Z,98361.25
2019-05-18T16:15:36.985Z,98362.69
2019-05-18T16:18:08.244Z,98380.81
2019-05-18T16:20:39.527Z,98379.42
2019-05-18T16:23:10.900Z,98380.09
2019-05-18T16:25:42.122Z,98377.05
2019-05-18T16:28:13.511Z,98381.18
2019-05-18T16:30:44.795Z,98392.37
2019-05-18T16:33:16.124Z,98398.96
2019-05-18T16:35:47.352Z,98399.20
2019-05-18T16:38:18.662Z,98394.58
2019-05-18T16:40:49.896Z,98392.44
2019-05-18T16:43:21.296Z,98392.02
2019-05-18T16:45:52.515Z,98388.14
2019-05-18T16:48:23.987Z,98390.12
2019-05-18T16:50:55.363Z,98389.90
2019-05-18T16:53:26.607Z,98385.09
2019-05-18T16:55:57.935Z,98383.95
2019-05-18T16:58:29.294Z,98380.95
2019-05-18T17:01:00.668Z,98375.45
2019-05-18T17:03:32.261Z,98375.33
2019-05-18T17:06:03.845Z,98376.50
2019-05-18T17:08:35.247Z,98384.24
2019-05-18T17:11:06.677Z,98384.68
2019-05-18T17:13:38.023Z,98387.32
2019-05-18T17:16:09.353Z,98381.73
2019-05-18T17:18:40.714Z,98393.47
2019-05-18T17:21:12.011Z,98398.28
2019-05-18T17:23:43.409Z,98399.60
2019-05-18T17:26:14.803Z,98408.00
2019-05-18T17:28:46.160Z,98415.13
2019-05-18T17:31:17.502Z,98423.33
2019-05-18T17:33:48.875Z,98428.80
2019-05-18T17:36:20.115Z,98442.86
2019-05-18T17:38:51.629Z,98448.59
2019-05-18T17:41:22.932Z,98457.98
2019-05-18T17:43:54.184Z,98464.77
2019-05-18T17:46:25.505Z,98468.03
2019-05-18T17:48:56.905Z,98479.80
2019-05-18T17:54:04.765Z,98488.92
2019-05-18T17:56:36.058Z,98501.98
2019-05-18T17:59:07.366Z,98507.31
2019-05-18T18:01:38.654Z,98513.17
2019-05-18T18:04:09.902Z,98517.36
2019-05-18T18:06:41.108Z,98521.23
2019-05-18T18:09:12.350Z,98525.16
2019-05-18T18:11:43.550Z,98534.44
2019-05-18T18:14:14.773Z,98538.31
2019-05-18T18:16:46.087Z,98537.25
2019-05-18T18:19:17.383Z,98535.80
2019-05-18T18:21:48.678Z,98530.70
2019-05-18T18:24:20.029Z,98527.11
2019-05-18T18:26:51.303Z,98534.21
2019-05-18T18:29:22.603Z,98533.68
2019-05-18T18:31:53.834Z,98537.03
2019-05-18T18:34:25.051Z,98540.45
2019-05-18T18:36:56.331Z,98532.34
2019-05-18T18:39:27.641Z,98528.33
2019-05-18T18:41:58.972Z,98526.00
2019-05-18T18:44:30.267Z,98531.48
2019-05-18T18:47:01.602Z,98545.91
2019-05-18T18:49:32.891Z,98539.00
2019-05-18T18:52:04.240Z,98541.66
2019-05-18T18:54:35.600Z,98543.68
2019-05-18T18:57:07.116Z,98537.09
2019-05-18T18:59:38.420Z,98532.84
2019-05-18T19:02:09.790Z,98531.81
2019-05-18T19:04:41.089Z,98528.59
2019-05-18T19:07:12.329Z,98524.98
2019-05-18T19:09:43.623Z,98527.20
2019-05-18T19:12:15.109Z,98526.25
2019-05-18T19:14:46.368Z,98520.39
2019-05-18T19:17:17.791Z,98510.36
2019-05-18T19:19:49.105Z,98501.58
2019-05-18T19:22:20.416Z,98483.27
2019-05-18T19:24:51.751Z,98482.73
2019-05-18T19:27:23.127Z,98475.41
2019-05-18T19:29:54.409Z,98469.36
2019-05-18T19:32:25.671Z,98467.81
2019-05-18T19:34:57.011Z,98471.13
2019-05-18T19:37:28.408Z,98481.90
2019-05-18T19:39:59.604Z,98489.06
2019-05-18T19:42:31.063Z,98483.25
2019-05-18T19:45:02.465Z,98482.82
2019-05-18T19:47:33.738Z,98486.23
2019-05-18T19:50:05.344Z,98486.39
2019-05-18T19:52:36.592Z,98469.20
2019-05-18T19:55:07.969Z,98462.59
2019-05-18T19:57:39.366Z,98476.72
2019-05-18T20:00:10.907Z,98480.36
2019-05-18T20:02:42.148Z,98490.11
2019-05-18T20:05:13.405Z,98491.16
2019-05-18T20:07:44.781Z,98499.59
2019-05-18T20:10:16.200Z,98505.38
2019-05-18T20:12:47.495Z,98512.86
2019-05-18T20:15:19.394Z,98508.34
2019-05-18T20:17:50.821Z,98527.51
2019-05-18T20:20:22.174Z,98548.52
2019-05-18T20:22:53.471Z,98553.20
2019-05-18T20:25:24.727Z,98548.03
2019-05-18T20:27:56.063Z,98546.66
2019-05-18T20:30:27.576Z,98548.43
2019-05-18T20:32:58.768Z,98548.38
2019-05-18T20:35:29.996Z,98541.55
2019-05-18T20:38:01.412Z,98546.80
2019-05-18T20:40:32.832Z,98551.17
2019-05-18T20:43:04.106Z,98552.08
2019-05-18T20:45:35.415Z,98556.05
2019-05-18T20:48:06.698Z,98556.58
2019-05-18T20:50:37.966Z,98556.41
2019-05-18T20:53:09.202Z,98566.03
2019-05-18T20:55:40.534Z,98570.09
2019-05-18T20:58:11.838Z,98573.23
2019-05-18T21:00:43.218Z,98570.84
2019-05-18T21:03:14.513Z,98570.78
2019-05-18T21:05:45.742Z,98570.28
2019-05-18T21:08:17.043Z,98570.97
2019-05-18T21:10:48.398Z,98569.13
2019-05-18T21:13:19.687Z,98573.44
2019-05-18T21:15:50.933Z,98570.11
2019-05-18T21:18:22.246Z,98572.42
2019-05-18T21:20:53.539Z,98571.34
2019-05-18T21:23:24.834Z,98568.61
2019-05-18T21:25:56.088Z,98563.42
2019-05-18T21:28:27.481Z,98567.23
2019-05-18T21:30:58.823Z,98562.11
2019-05-18T21:33:30.088Z,98557.64
2019-05-18T21:36:01.533Z,98560.60
2019-05-18T21:38:32.898Z,98556.78
2019-05-18T21:41:04.208Z,98556.16
2019-05-18T21:43:35.479Z,98552.29
2019-05-18T21:46:06.729Z,98547.47
2019-05-18T21:48:38.004Z,98548.13
2019-05-18T21:51:09.273Z,98547.05
2019-05-18T21:53:40.558Z,98549.51
2019-05-18T21:56:11.846Z,98547.63
2019-05-18T21:58:43.064Z,98550.42
2019-05-18T22:01:14.297Z,98551.27
2019-05-18T22:03:48.175Z,98550.75
2019-05-18T22:06:19.151Z,98550.59
2019-05-18T22:08:50.538Z,98551.56
2019-05-18T22:11:21.933Z,98551.22
2019-05-18T22:13:53.216Z,98547.73
2019-05-18T22:16:24.517Z,98540.64
2019-05-18T22:18:55.843Z,98538.50
2019-05-18T22:21:27.071Z,98536.55
2019-05-18T22:23:58.334Z,98534.09
2019-05-18T22:26:29.550Z,98531.80
2019-05-18T22:29:00.893Z,98524.56
2019-05-18T22:31:32.190Z,98525.30
2019-05-18T22:34:03.507Z,98523.09
2019-05-18T22:36:34.706Z,98525.33
2019-05-18T22:39:07.328Z,98524.41
2019-05-18T22:41:38.700Z,98527.30
2019-05-18T22:44:09.961Z,98521.55
2019-05-18T22:46:41.353Z,98522.02
2019-05-18T22:49:12.729Z,98511.82
2019-05-18T22:51:44.005Z,98506.95
2019-05-18T22:54:15.473Z,98498.13
2019-05-18T22:56:46.772Z,98499.80
2019-05-18T22:59:17.994Z,98505.10
2019-05-18T23:01:49.208Z,98503.96
2019-05-18T23:04:20.440Z,98499.62
2019-05-18T23:06:51.660Z,98489.34
2019-05-18T23:09:22.990Z,98484.48
2019-05-18T23:11:54.214Z,98474.07
2019-05-18T23:14:25.445Z,98467.77
2019-05-18T23:16:56.652Z,98460.78
2019-05-18T23:19:27.953Z,98459.47
2019-05-18T23:21:59.153Z,98469.23
2019-05-18T23:24:30.305Z,98463.58
2019-05-18T23:27:01.507Z,98461.94
2019-05-18T23:29:32.841Z,98460.59
2019-05-18T23:32:04.138Z,98457.92
2019-05-18T23:34:35.428Z,98457.84
2019-05-18T23:37:06.719Z,98458.45
2019-05-18T23:39:38.100Z,98451.13
2019-05-18T23:42:09.379Z,98455.38
2019-05-18T23:44:40.880Z,98452.65
2019-05-18T23:47:12.068Z,98448.67
2019-05-18T23:49:43.360Z,98449.73
2019-05-18T23:52:14.587Z,98446.74
2019-05-18T23:54:45.929Z,98455.55
2019-05-18T23:57:17.164Z,98455.79
2019-05-18T23:59:48.483Z,98457.84
